sensor_id;sensor_type;location;lat;lon;timestamp;P1;durP1;ratioP1;P2;durP2;ratioP2
68284;SDS011;55114;52.052;5.238;2023-02-28T00:00:00;6.40;;;1.67;;
68284;SDS011;55114;52.052;5.238;2023-02-28T00:02:27;8.05;;;2.10;;
68284;SDS011;55114;52.052;5.238;2023-02-28T00:04:54;7.27;;;2.07;;
68284;SDS011;55114;52.052;5.238;2023-02-28T00:07:27;5.25;;;1.70;;
68284;SDS011;55114;52.052;5.238;2023-02-28T00:09:54;7.70;;;2.00;;
68284;SDS011;55114;52.052;5.238;2023-02-28T00:12:22;5.07;;;1.75;;
68284;SDS011;55114;52.052;5.238;2023-02-28T00:14:49;4.53;;;1.80;;
68284;SDS011;55114;52.052;5.238;2023-02-28T00:17:17;8.87;;;1.80;;
68284;SDS011;55114;52.052;5.238;2023-02-28T00:19:50;5.05;;;1.70;;
68284;SDS011;55114;52.052;5.238;2023-02-28T00:22:18;5.13;;;1.90;;
68284;SDS011;55114;52.052;5.238;2023-02-28T00:24:46;5.15;;;1.60;;
68284;SDS011;55114;52.052;5.238;2023-02-28T00:27:14;5.65;;;2.00;;
68284;SDS011;55114;52.052;5.238;2023-02-28T00:29:41;5.70;;;1.75;;
68284;SDS011;55114;52.052;5.238;2023-02-28T00:32:09;7.38;;;1.95;;
68284;SDS011;55114;52.052;5.238;2023-02-28T00:34:36;4.88;;;1.88;;
68284;SDS011;55114;52.052;5.238;2023-02-28T00:37:05;4.88;;;1.90;;
68284;SDS011;55114;52.052;5.238;2023-02-28T00:39:36;6.22;;;2.20;;
68284;SDS011;55114;52.052;5.238;2023-02-28T00:42:04;9.70;;;2.08;;
68284;SDS011;55114;52.052;5.238;2023-02-28T00:44:31;6.18;;;1.85;;
68284;SDS011;55114;52.052;5.238;2023-02-28T00:46:59;7.90;;;2.00;;
68284;SDS011;55114;52.052;5.238;2023-02-28T00:49:26;11.52;;;2.08;;
68284;SDS011;55114;52.052;5.238;2023-02-28T00:51:54;6.97;;;2.53;;
68284;SDS011;55114;52.052;5.238;2023-02-28T00:54:21;5.10;;;1.77;;
68284;SDS011;55114;52.052;5.238;2023-02-28T00:56:49;6.15;;;2.08;;
68284;SDS011;55114;52.052;5.238;2023-02-28T00:59:17;5.75;;;1.90;;
68284;SDS011;55114;52.052;5.238;2023-02-28T01:01:45;7.75;;;2.10;;
68284;SDS011;55114;52.052;5.238;2023-02-28T01:04:13;6.50;;;2.00;;
68284;SDS011;55114;52.052;5.238;2023-02-28T01:06:40;8.17;;;2.23;;
68284;SDS011;55114;52.052;5.238;2023-02-28T01:09:08;6.28;;;1.90;;
68284;SDS011;55114;52.052;5.238;2023-02-28T01:11:35;5.55;;;2.08;;
68284;SDS011;55114;52.052;5.238;2023-02-28T01:14:03;5.63;;;1.90;;
68284;SDS011;55114;52.052;5.238;2023-02-28T01:16:30;6.43;;;2.20;;
68284;SDS011;55114;52.052;5.238;2023-02-28T01:18:58;7.27;;;2.10;;
68284;SDS011;55114;52.052;5.238;2023-02-28T01:21:25;6.10;;;2.20;;
68284;SDS011;55114;52.052;5.238;2023-02-28T01:23:55;5.18;;;2.10;;
68284;SDS011;55114;52.052;5.238;2023-02-28T01:26:24;4.93;;;2.05;;
68284;SDS011;55114;52.052;5.238;2023-02-28T01:28:51;5.05;;;1.88;;
68284;SDS011;55114;52.052;5.238;2023-02-28T01:31:19;6.20;;;1.95;;
68284;SDS011;55114;52.052;5.238;2023-02-28T01:33:47;5.95;;;2.15;;
68284;SDS011;55114;52.052;5.238;2023-02-28T01:36:16;6.95;;;2.15;;
68284;SDS011;55114;52.052;5.238;2023-02-28T01:38:44;5.00;;;2.10;;
68284;SDS011;55114;52.052;5.238;2023-02-28T01:41:22;6.72;;;2.33;;
68284;SDS011;55114;52.052;5.238;2023-02-28T01:43:54;6.23;;;2.40;;
68284;SDS011;55114;52.052;5.238;2023-02-28T01:46:22;8.68;;;2.20;;
68284;SDS011;55114;52.052;5.238;2023-02-28T01:48:51;7.07;;;2.20;;
68284;SDS011;55114;52.052;5.238;2023-02-28T01:51:26;5.75;;;2.10;;
68284;SDS011;55114;52.052;5.238;2023-02-28T01:53:56;5.22;;;2.17;;
68284;SDS011;55114;52.052;5.238;2023-02-28T01:56:27;5.50;;;2.20;;
68284;SDS011;55114;52.052;5.238;2023-02-28T01:58:55;8.88;;;2.28;;
68284;SDS011;55114;52.052;5.238;2023-02-28T02:01:23;6.97;;;2.08;;
68284;SDS011;55114;52.052;5.238;2023-02-28T02:03:56;6.35;;;2.40;;
68284;SDS011;55114;52.052;5.238;2023-02-28T02:06:34;6.00;;;2.40;;
68284;SDS011;55114;52.052;5.238;2023-02-28T02:09:02;5.37;;;2.40;;
68284;SDS011;55114;52.052;5.238;2023-02-28T02:11:30;5.65;;;2.10;;
68284;SDS011;55114;52.052;5.238;2023-02-28T02:14:17;5.82;;;2.10;;
68284;SDS011;55114;52.052;5.238;2023-02-28T02:17:10;7.72;;;2.20;;
68284;SDS011;55114;52.052;5.238;2023-02-28T02:35:20;6.13;;;2.30;;
68284;SDS011;55114;52.052;5.238;2023-02-28T02:37:51;7.18;;;2.58;;
68284;SDS011;55114;52.052;5.238;2023-02-28T02:40:20;6.65;;;2.38;;
68284;SDS011;55114;52.052;5.238;2023-02-28T02:42:56;5.63;;;2.22;;
68284;SDS011;55114;52.052;5.238;2023-02-28T02:47:55;8.20;;;2.50;;
68284;SDS011;55114;52.052;5.238;2023-02-28T02:50:24;10.93;;;2.97;;
68284;SDS011;55114;52.052;5.238;2023-02-28T02:52:55;7.63;;;2.80;;
68284;SDS011;55114;52.052;5.238;2023-02-28T02:55:23;6.90;;;2.35;;
68284;SDS011;55114;52.052;5.238;2023-02-28T02:57:52;8.32;;;2.45;;
68284;SDS011;55114;52.052;5.238;2023-02-28T03:00:23;6.93;;;2.40;;
68284;SDS011;55114;52.052;5.238;2023-02-28T03:02:52;7.72;;;2.55;;
68284;SDS011;55114;52.052;5.238;2023-02-28T03:05:23;6.00;;;2.30;;
68284;SDS011;55114;52.052;5.238;2023-02-28T03:07:52;6.30;;;2.60;;
68284;SDS011;55114;52.052;5.238;2023-02-28T03:13:22;6.25;;;2.60;;
68284;SDS011;55114;52.052;5.238;2023-02-28T03:15:58;7.47;;;2.22;;
68284;SDS011;55114;52.052;5.238;2023-02-28T03:21:26;8.00;;;2.75;;
68284;SDS011;55114;52.052;5.238;2023-02-28T03:26:19;6.60;;;2.60;;
68284;SDS011;55114;52.052;5.238;2023-02-28T03:31:34;7.68;;;2.58;;
68284;SDS011;55114;52.052;5.238;2023-02-28T03:37:04;7.70;;;2.70;;
68284;SDS011;55114;52.052;5.238;2023-02-28T03:42:08;6.80;;;2.42;;
68284;SDS011;55114;52.052;5.238;2023-02-28T03:44:44;6.25;;;2.47;;
68284;SDS011;55114;52.052;5.238;2023-02-28T03:47:13;7.45;;;2.80;;
68284;SDS011;55114;52.052;5.238;2023-02-28T03:49:45;7.18;;;2.90;;
68284;SDS011;55114;52.052;5.238;2023-02-28T03:52:14;6.38;;;3.15;;
68284;SDS011;55114;52.052;5.238;2023-02-28T03:54:42;6.32;;;2.58;;
68284;SDS011;55114;52.052;5.238;2023-02-28T03:59:42;6.82;;;2.40;;
68284;SDS011;55114;52.052;5.238;2023-02-28T04:02:10;8.63;;;2.75;;
68284;SDS011;55114;52.052;5.238;2023-02-28T04:04:37;7.77;;;3.23;;
68284;SDS011;55114;52.052;5.238;2023-02-28T04:07:07;6.50;;;2.78;;
68284;SDS011;55114;52.052;5.238;2023-02-28T04:09:34;9.75;;;3.20;;
68284;SDS011;55114;52.052;5.238;2023-02-28T04:12:02;9.80;;;3.08;;
68284;SDS011;55114;52.052;5.238;2023-02-28T04:14:29;5.88;;;2.58;;
68284;SDS011;55114;52.052;5.238;2023-02-28T04:16:56;8.57;;;3.05;;
68284;SDS011;55114;52.052;5.238;2023-02-28T04:19:24;10.45;;;3.08;;
68284;SDS011;55114;52.052;5.238;2023-02-28T04:21:51;11.30;;;2.78;;
68284;SDS011;55114;52.052;5.238;2023-02-28T04:24:23;6.65;;;2.88;;
68284;SDS011;55114;52.052;5.238;2023-02-28T04:26:52;5.20;;;1.85;;
68284;SDS011;55114;52.052;5.238;2023-02-28T04:29:21;7.13;;;2.80;;
68284;SDS011;55114;52.052;5.238;2023-02-28T04:31:48;4.32;;;2.03;;
68284;SDS011;55114;52.052;5.238;2023-02-28T04:34:16;5.38;;;2.30;;
68284;SDS011;55114;52.052;5.238;2023-02-28T04:36:45;7.22;;;1.75;;
68284;SDS011;55114;52.052;5.238;2023-02-28T04:39:27;5.28;;;1.70;;
68284;SDS011;55114;52.052;5.238;2023-02-28T04:41:55;5.47;;;1.80;;
68284;SDS011;55114;52.052;5.238;2023-02-28T04:44:22;5.40;;;1.80;;
68284;SDS011;55114;52.052;5.238;2023-02-28T04:46:50;5.95;;;1.83;;
68284;SDS011;55114;52.052;5.238;2023-02-28T04:49:17;5.47;;;1.67;;
68284;SDS011;55114;52.052;5.238;2023-02-28T04:51:44;6.10;;;1.80;;
68284;SDS011;55114;52.052;5.238;2023-02-28T04:54:11;5.27;;;2.10;;
68284;SDS011;55114;52.052;5.238;2023-02-28T04:56:39;5.07;;;1.80;;
68284;SDS011;55114;52.052;5.238;2023-02-28T04:59:06;4.55;;;2.00;;
68284;SDS011;55114;52.052;5.238;2023-02-28T05:01:34;5.13;;;2.20;;
68284;SDS011;55114;52.052;5.238;2023-02-28T05:04:03;4.95;;;2.20;;
68284;SDS011;55114;52.052;5.238;2023-02-28T05:06:31;4.27;;;1.80;;
68284;SDS011;55114;52.052;5.238;2023-02-28T05:08:59;4.13;;;1.65;;
68284;SDS011;55114;52.052;5.238;2023-02-28T05:11:30;3.35;;;1.20;;
68284;SDS011;55114;52.052;5.238;2023-02-28T05:14:01;4.70;;;2.20;;
68284;SDS011;55114;52.052;5.238;2023-02-28T05:16:30;5.68;;;2.20;;
68284;SDS011;55114;52.052;5.238;2023-02-28T05:18:57;5.47;;;1.98;;
68284;SDS011;55114;52.052;5.238;2023-02-28T05:21:35;4.47;;;2.03;;
68284;SDS011;55114;52.052;5.238;2023-02-28T05:24:05;5.85;;;2.30;;
68284;SDS011;55114;52.052;5.238;2023-02-28T05:26:37;6.68;;;1.90;;
68284;SDS011;55114;52.052;5.238;2023-02-28T05:29:05;7.38;;;2.40;;
68284;SDS011;55114;52.052;5.238;2023-02-28T05:31:32;7.10;;;2.22;;
68284;SDS011;55114;52.052;5.238;2023-02-28T05:34:00;6.13;;;2.42;;
68284;SDS011;55114;52.052;5.238;2023-02-28T05:36:27;5.90;;;2.30;;
68284;SDS011;55114;52.052;5.238;2023-02-28T05:38:54;5.30;;;2.00;;
68284;SDS011;55114;52.052;5.238;2023-02-28T05:41:21;4.53;;;1.90;;
68284;SDS011;55114;52.052;5.238;2023-02-28T05:43:49;6.07;;;2.40;;
68284;SDS011;55114;52.052;5.238;2023-02-28T05:46:16;5.60;;;2.50;;
68284;SDS011;55114;52.052;5.238;2023-02-28T05:48:45;6.85;;;2.60;;
68284;SDS011;55114;52.052;5.238;2023-02-28T05:51:13;6.45;;;2.50;;
68284;SDS011;55114;52.052;5.238;2023-02-28T05:53:40;5.60;;;2.20;;
68284;SDS011;55114;52.052;5.238;2023-02-28T05:56:07;9.13;;;2.50;;
68284;SDS011;55114;52.052;5.238;2023-02-28T05:58:34;5.72;;;2.53;;
68284;SDS011;55114;52.052;5.238;2023-02-28T06:01:19;6.28;;;2.50;;
68284;SDS011;55114;52.052;5.238;2023-02-28T06:03:46;5.25;;;2.47;;
68284;SDS011;55114;52.052;5.238;2023-02-28T06:06:13;6.78;;;2.55;;
68284;SDS011;55114;52.052;5.238;2023-02-28T06:08:41;6.10;;;2.70;;
68284;SDS011;55114;52.052;5.238;2023-02-28T06:11:09;5.53;;;2.38;;
68284;SDS011;55114;52.052;5.238;2023-02-28T06:13:37;6.07;;;2.47;;
68284;SDS011;55114;52.052;5.238;2023-02-28T06:16:04;9.68;;;4.50;;
68284;SDS011;55114;52.052;5.238;2023-02-28T06:18:32;8.75;;;3.63;;
68284;SDS011;55114;52.052;5.238;2023-02-28T06:20:59;7.32;;;3.47;;
68284;SDS011;55114;52.052;5.238;2023-02-28T06:23:26;8.52;;;3.35;;
68284;SDS011;55114;52.052;5.238;2023-02-28T06:25:54;8.95;;;3.25;;
68284;SDS011;55114;52.052;5.238;2023-02-28T06:28:24;9.75;;;3.90;;
68284;SDS011;55114;52.052;5.238;2023-02-28T06:30:52;7.47;;;3.38;;
68284;SDS011;55114;52.052;5.238;2023-02-28T06:33:19;6.70;;;2.80;;
68284;SDS011;55114;52.052;5.238;2023-02-28T06:35:47;7.93;;;3.38;;
68284;SDS011;55114;52.052;5.238;2023-02-28T06:38:16;8.00;;;3.20;;
68284;SDS011;55114;52.052;5.238;2023-02-28T06:40:44;7.70;;;3.10;;
68284;SDS011;55114;52.052;5.238;2023-02-28T06:43:12;10.32;;;3.60;;
68284;SDS011;55114;52.052;5.238;2023-02-28T06:45:43;6.60;;;3.10;;
68284;SDS011;55114;52.052;5.238;2023-02-28T06:48:10;7.65;;;3.03;;
68284;SDS011;55114;52.052;5.238;2023-02-28T06:50:37;6.82;;;3.10;;
68284;SDS011;55114;52.052;5.238;2023-02-28T06:53:05;6.32;;;2.80;;
68284;SDS011;55114;52.052;5.238;2023-02-28T06:55:32;8.55;;;3.03;;
68284;SDS011;55114;52.052;5.238;2023-02-28T06:57:59;7.93;;;3.07;;
68284;SDS011;55114;52.052;5.238;2023-02-28T07:00:27;11.10;;;3.22;;
68284;SDS011;55114;52.052;5.238;2023-02-28T07:02:54;7.40;;;3.15;;
68284;SDS011;55114;52.052;5.238;2023-02-28T07:05:21;9.38;;;3.35;;
68284;SDS011;55114;52.052;5.238;2023-02-28T07:07:48;8.48;;;2.92;;
68284;SDS011;55114;52.052;5.238;2023-02-28T07:10:18;8.33;;;3.40;;
68284;SDS011;55114;52.052;5.238;2023-02-28T07:12:46;7.30;;;3.20;;
68284;SDS011;55114;52.052;5.238;2023-02-28T07:15:13;8.10;;;3.10;;
68284;SDS011;55114;52.052;5.238;2023-02-28T07:17:40;6.82;;;3.30;;
68284;SDS011;55114;52.052;5.238;2023-02-28T07:20:08;9.25;;;3.35;;
68284;SDS011;55114;52.052;5.238;2023-02-28T07:22:35;8.50;;;3.47;;
68284;SDS011;55114;52.052;5.238;2023-02-28T07:25:02;7.97;;;3.38;;
68284;SDS011;55114;52.052;5.238;2023-02-28T07:27:30;7.75;;;3.22;;
68284;SDS011;55114;52.052;5.238;2023-02-28T07:29:57;7.03;;;3.42;;
68284;SDS011;55114;52.052;5.238;2023-02-28T07:32:27;7.53;;;3.40;;
68284;SDS011;55114;52.052;5.238;2023-02-28T07:34:55;6.93;;;3.10;;
68284;SDS011;55114;52.052;5.238;2023-02-28T07:37:22;8.27;;;3.33;;
68284;SDS011;55114;52.052;5.238;2023-02-28T07:39:49;8.10;;;3.42;;
68284;SDS011;55114;52.052;5.238;2023-02-28T07:42:17;9.75;;;3.75;;
68284;SDS011;55114;52.052;5.238;2023-02-28T07:44:44;9.38;;;4.30;;
68284;SDS011;55114;52.052;5.238;2023-02-28T07:47:12;9.07;;;4.15;;
68284;SDS011;55114;52.052;5.238;2023-02-28T07:49:39;7.20;;;3.40;;
68284;SDS011;55114;52.052;5.238;2023-02-28T07:52:06;7.75;;;3.20;;
68284;SDS011;55114;52.052;5.238;2023-02-28T07:54:37;6.97;;;3.22;;
68284;SDS011;55114;52.052;5.238;2023-02-28T07:57:04;8.20;;;3.28;;
68284;SDS011;55114;52.052;5.238;2023-02-28T07:59:31;7.32;;;3.30;;
68284;SDS011;55114;52.052;5.238;2023-02-28T08:01:58;8.20;;;3.13;;
68284;SDS011;55114;52.052;5.238;2023-02-28T08:04:26;7.68;;;3.05;;
68284;SDS011;55114;52.052;5.238;2023-02-28T08:06:53;6.90;;;3.05;;
68284;SDS011;55114;52.052;5.238;2023-02-28T08:09:22;7.60;;;3.05;;
68284;SDS011;55114;52.052;5.238;2023-02-28T08:11:49;7.90;;;3.45;;
68284;SDS011;55114;52.052;5.238;2023-02-28T08:14:17;10.93;;;2.63;;
68284;SDS011;55114;52.052;5.238;2023-02-28T08:16:44;7.65;;;2.85;;
68284;SDS011;55114;52.052;5.238;2023-02-28T08:19:11;7.35;;;2.60;;
68284;SDS011;55114;52.052;5.238;2023-02-28T08:21:39;6.05;;;2.40;;
68284;SDS011;55114;52.052;5.238;2023-02-28T08:24:06;7.53;;;2.58;;
68284;SDS011;55114;52.052;5.238;2023-02-28T08:26:34;5.38;;;2.40;;
68284;SDS011;55114;52.052;5.238;2023-02-28T08:29:01;6.30;;;2.25;;
68284;SDS011;55114;52.052;5.238;2023-02-28T08:31:28;5.80;;;2.05;;
68284;SDS011;55114;52.052;5.238;2023-02-28T08:33:56;5.32;;;2.55;;
68284;SDS011;55114;52.052;5.238;2023-02-28T08:36:25;4.75;;;2.30;;
68284;SDS011;55114;52.052;5.238;2023-02-28T08:38:56;4.97;;;2.10;;
68284;SDS011;55114;52.052;5.238;2023-02-28T08:41:23;6.45;;;2.17;;
68284;SDS011;55114;52.052;5.238;2023-02-28T08:43:51;5.45;;;2.15;;
68284;SDS011;55114;52.052;5.238;2023-02-28T08:46:19;4.80;;;1.80;;
68284;SDS011;55114;52.052;5.238;2023-02-28T08:48:47;3.70;;;1.50;;
68284;SDS011;55114;52.052;5.238;2023-02-28T08:51:15;5.28;;;2.08;;
68284;SDS011;55114;52.052;5.238;2023-02-28T08:53:44;4.65;;;2.10;;
68284;SDS011;55114;52.052;5.238;2023-02-28T08:56:13;4.68;;;2.00;;
68284;SDS011;55114;52.052;5.238;2023-02-28T08:58:40;4.35;;;1.85;;
68284;SDS011;55114;52.052;5.238;2023-02-28T09:04:04;6.20;;;1.83;;
68284;SDS011;55114;52.052;5.238;2023-02-28T09:06:34;4.63;;;2.10;;
68284;SDS011;55114;52.052;5.238;2023-02-28T09:09:02;5.13;;;2.08;;
68284;SDS011;55114;52.052;5.238;2023-02-28T09:11:32;4.60;;;1.83;;
68284;SDS011;55114;52.052;5.238;2023-02-28T09:14:00;5.82;;;1.70;;
68284;SDS011;55114;52.052;5.238;2023-02-28T09:16:30;4.57;;;1.80;;
68284;SDS011;55114;52.052;5.238;2023-02-28T09:18:59;5.03;;;1.92;;
68284;SDS011;55114;52.052;5.238;2023-02-28T09:21:26;6.03;;;1.75;;
68284;SDS011;55114;52.052;5.238;2023-02-28T09:23:54;4.30;;;1.80;;
68284;SDS011;55114;52.052;5.238;2023-02-28T09:26:26;3.60;;;1.55;;
68284;SDS011;55114;52.052;5.238;2023-02-28T09:29:07;6.15;;;1.50;;
68284;SDS011;55114;52.052;5.238;2023-02-28T09:31:35;3.75;;;1.30;;
68284;SDS011;55114;52.052;5.238;2023-02-28T09:34:03;5.50;;;1.80;;
68284;SDS011;55114;52.052;5.238;2023-02-28T09:36:31;4.55;;;1.80;;
68284;SDS011;55114;52.052;5.238;2023-02-28T09:39:10;4.60;;;1.75;;
68284;SDS011;55114;52.052;5.238;2023-02-28T09:41:39;3.58;;;1.73;;
68284;SDS011;55114;52.052;5.238;2023-02-28T09:44:16;3.90;;;1.30;;
68284;SDS011;55114;52.052;5.238;2023-02-28T09:46:47;3.85;;;1.27;;
68284;SDS011;55114;52.052;5.238;2023-02-28T09:49:16;2.58;;;0.82;;
68284;SDS011;55114;52.052;5.238;2023-02-28T09:54:47;2.83;;;1.27;;
68284;SDS011;55114;52.052;5.238;2023-02-28T09:57:18;2.97;;;1.10;;
68284;SDS011;55114;52.052;5.238;2023-02-28T10:09:57;3.05;;;1.20;;
68284;SDS011;55114;52.052;5.238;2023-02-28T10:12:27;3.00;;;1.23;;
68284;SDS011;55114;52.052;5.238;2023-02-28T10:14:56;3.47;;;1.23;;
68284;SDS011;55114;52.052;5.238;2023-02-28T10:17:36;4.63;;;1.27;;
68284;SDS011;55114;52.052;5.238;2023-02-28T10:20:25;7.07;;;1.52;;
68284;SDS011;55114;52.052;5.238;2023-02-28T10:23:05;3.53;;;1.30;;
68284;SDS011;55114;52.052;5.238;2023-02-28T10:25:37;3.88;;;1.45;;
68284;SDS011;55114;52.052;5.238;2023-02-28T10:28:11;2.95;;;1.30;;
68284;SDS011;55114;52.052;5.238;2023-02-28T10:30:41;2.53;;;1.02;;
68284;SDS011;55114;52.052;5.238;2023-02-28T10:35:46;3.78;;;1.35;;
68284;SDS011;55114;52.052;5.238;2023-02-28T10:38:56;4.13;;;1.38;;
68284;SDS011;55114;52.052;5.238;2023-02-28T10:41:09;3.03;;;1.30;;
68284;SDS011;55114;52.052;5.238;2023-02-28T10:43:37;3.10;;;1.30;;
68284;SDS011;55114;52.052;5.238;2023-02-28T10:48:43;3.92;;;1.83;;
68284;SDS011;55114;52.052;5.238;2023-02-28T10:51:12;3.28;;;1.20;;
68284;SDS011;55114;52.052;5.238;2023-02-28T10:53:45;3.15;;;1.00;;
68284;SDS011;55114;52.052;5.238;2023-02-28T10:56:26;3.42;;;1.27;;
68284;SDS011;55114;52.052;5.238;2023-02-28T10:58:55;2.13;;;0.85;;
68284;SDS011;55114;52.052;5.238;2023-02-28T11:01:26;2.55;;;1.00;;
68284;SDS011;55114;52.052;5.238;2023-02-28T11:04:01;3.38;;;1.00;;
68284;SDS011;55114;52.052;5.238;2023-02-28T11:06:32;3.15;;;1.20;;
68284;SDS011;55114;52.052;5.238;2023-02-28T11:11:28;3.22;;;1.05;;
68284;SDS011;55114;52.052;5.238;2023-02-28T11:14:02;3.33;;;1.27;;
68284;SDS011;55114;52.052;5.238;2023-02-28T11:16:34;2.47;;;1.00;;
68284;SDS011;55114;52.052;5.238;2023-02-28T11:19:02;3.30;;;1.25;;
68284;SDS011;55114;52.052;5.238;2023-02-28T11:21:32;3.45;;;1.25;;
68284;SDS011;55114;52.052;5.238;2023-02-28T11:24:01;3.97;;;1.40;;
68284;SDS011;55114;52.052;5.238;2023-02-28T11:26:37;4.00;;;1.40;;
68284;SDS011;55114;52.052;5.238;2023-02-28T11:29:10;3.55;;;1.30;;
68284;SDS011;55114;52.052;5.238;2023-02-28T11:31:39;3.40;;;1.23;;
68284;SDS011;55114;52.052;5.238;2023-02-28T11:34:23;2.85;;;1.23;;
68284;SDS011;55114;52.052;5.238;2023-02-28T11:36:51;3.72;;;1.50;;
68284;SDS011;55114;52.052;5.238;2023-02-28T11:39:20;3.67;;;1.10;;
68284;SDS011;55114;52.052;5.238;2023-02-28T11:47:15;3.72;;;1.35;;
68284;SDS011;55114;52.052;5.238;2023-02-28T11:52:40;3.90;;;1.58;;
68284;SDS011;55114;52.052;5.238;2023-02-28T12:05:32;3.55;;;1.40;;
68284;SDS011;55114;52.052;5.238;2023-02-28T12:13:39;3.55;;;1.60;;
68284;SDS011;55114;52.052;5.238;2023-02-28T12:16:19;4.72;;;1.65;;
68284;SDS011;55114;52.052;5.238;2023-02-28T12:26:28;4.13;;;1.60;;
68284;SDS011;55114;52.052;5.238;2023-02-28T12:29:04;3.65;;;1.20;;
68284;SDS011;55114;52.052;5.238;2023-02-28T12:31:36;3.88;;;1.38;;
68284;SDS011;55114;52.052;5.238;2023-02-28T12:34:16;5.07;;;1.30;;
68284;SDS011;55114;52.052;5.238;2023-02-28T12:36:46;3.60;;;1.33;;
68284;SDS011;55114;52.052;5.238;2023-02-28T12:41:44;3.40;;;1.50;;
68284;SDS011;55114;52.052;5.238;2023-02-28T12:44:17;3.00;;;1.30;;
68284;SDS011;55114;52.052;5.238;2023-02-28T12:46:47;2.60;;;1.15;;
68284;SDS011;55114;52.052;5.238;2023-02-28T12:51:46;2.38;;;0.98;;
68284;SDS011;55114;52.052;5.238;2023-02-28T12:56:47;2.88;;;1.27;;
68284;SDS011;55114;52.052;5.238;2023-02-28T12:59:36;3.35;;;1.58;;
68284;SDS011;55114;52.052;5.238;2023-02-28T13:07:37;3.53;;;1.35;;
68284;SDS011;55114;52.052;5.238;2023-02-28T13:10:08;4.75;;;1.60;;
68284;SDS011;55114;52.052;5.238;2023-02-28T13:12:35;3.72;;;1.40;;
68284;SDS011;55114;52.052;5.238;2023-02-28T13:18:27;2.80;;;1.15;;
68284;SDS011;55114;52.052;5.238;2023-02-28T13:20:55;3.75;;;1.50;;
68284;SDS011;55114;52.052;5.238;2023-02-28T13:26:05;6.57;;;1.30;;
68284;SDS011;55114;52.052;5.238;2023-02-28T13:31:18;4.13;;;1.52;;
68284;SDS011;55114;52.052;5.238;2023-02-28T13:36:31;3.40;;;1.60;;
68284;SDS011;55114;52.052;5.238;2023-02-28T13:38:59;4.00;;;1.20;;
68284;SDS011;55114;52.052;5.238;2023-02-28T13:46:27;13.82;;;8.73;;
68284;SDS011;55114;52.052;5.238;2023-02-28T13:48:54;11.63;;;6.05;;
68284;SDS011;55114;52.052;5.238;2023-02-28T13:54:29;7.05;;;4.57;;
68284;SDS011;55114;52.052;5.238;2023-02-28T13:57:04;4.75;;;2.03;;
68284;SDS011;55114;52.052;5.238;2023-02-28T14:02:11;4.00;;;1.67;;
68284;SDS011;55114;52.052;5.238;2023-02-28T14:05:01;5.18;;;1.40;;
68284;SDS011;55114;52.052;5.238;2023-02-28T14:07:33;5.22;;;2.30;;
68284;SDS011;55114;52.052;5.238;2023-02-28T14:10:05;4.88;;;2.45;;
68284;SDS011;55114;52.052;5.238;2023-02-28T14:15:27;8.68;;;3.97;;
68284;SDS011;55114;52.052;5.238;2023-02-28T14:17:56;10.27;;;4.47;;
68284;SDS011;55114;52.052;5.238;2023-02-28T14:20:26;10.40;;;5.00;;
68284;SDS011;55114;52.052;5.238;2023-02-28T14:25:30;3.67;;;1.60;;
68284;SDS011;55114;52.052;5.238;2023-02-28T14:28:17;4.88;;;2.10;;
68284;SDS011;55114;52.052;5.238;2023-02-28T14:38:24;4.83;;;2.00;;
68284;SDS011;55114;52.052;5.238;2023-02-28T14:40:52;24.25;;;13.07;;
68284;SDS011;55114;52.052;5.238;2023-02-28T14:43:22;43.40;;;20.35;;
68284;SDS011;55114;52.052;5.238;2023-02-28T14:45:55;66.38;;;23.23;;
68284;SDS011;55114;52.052;5.238;2023-02-28T14:48:23;14.00;;;7.35;;
68284;SDS011;55114;52.052;5.238;2023-02-28T14:50:57;3.83;;;1.80;;
68284;SDS011;55114;52.052;5.238;2023-02-28T14:53:25;4.47;;;1.55;;
68284;SDS011;55114;52.052;5.238;2023-02-28T14:55:53;4.72;;;2.22;;
68284;SDS011;55114;52.052;5.238;2023-02-28T15:01:00;5.20;;;2.65;;
68284;SDS011;55114;52.052;5.238;2023-02-28T15:03:38;7.03;;;3.77;;
68284;SDS011;55114;52.052;5.238;2023-02-28T15:06:11;4.40;;;1.75;;
68284;SDS011;55114;52.052;5.238;2023-02-28T15:08:39;5.00;;;2.78;;
68284;SDS011;55114;52.052;5.238;2023-02-28T15:13:41;5.65;;;2.35;;
68284;SDS011;55114;52.052;5.238;2023-02-28T15:16:19;26.03;;;11.40;;
68284;SDS011;55114;52.052;5.238;2023-02-28T15:18:48;17.35;;;8.38;;
68284;SDS011;55114;52.052;5.238;2023-02-28T15:26:42;13.95;;;6.05;;
68284;SDS011;55114;52.052;5.238;2023-02-28T15:29:14;5.53;;;2.87;;
68284;SDS011;55114;52.052;5.238;2023-02-28T15:31:49;5.50;;;2.55;;
68284;SDS011;55114;52.052;5.238;2023-02-28T15:37:06;4.07;;;2.05;;
68284;SDS011;55114;52.052;5.238;2023-02-28T15:39:33;3.72;;;1.38;;
68284;SDS011;55114;52.052;5.238;2023-02-28T15:42:12;4.28;;;1.90;;
68284;SDS011;55114;52.052;5.238;2023-02-28T15:44:39;7.40;;;3.55;;
68284;SDS011;55114;52.052;5.238;2023-02-28T15:47:14;4.15;;;2.00;;
68284;SDS011;55114;52.052;5.238;2023-02-28T15:52:18;3.92;;;1.90;;
68284;SDS011;55114;52.052;5.238;2023-02-28T15:54:45;4.23;;;1.57;;
68284;SDS011;55114;52.052;5.238;2023-02-28T15:57:15;3.63;;;1.80;;
68284;SDS011;55114;52.052;5.238;2023-02-28T15:59:48;4.05;;;1.77;;
68284;SDS011;55114;52.052;5.238;2023-02-28T16:02:18;6.68;;;1.90;;
68284;SDS011;55114;52.052;5.238;2023-02-28T16:05:30;3.65;;;1.80;;
68284;SDS011;55114;52.052;5.238;2023-02-28T16:07:38;4.97;;;1.92;;
68284;SDS011;55114;52.052;5.238;2023-02-28T16:10:06;5.25;;;1.88;;
68284;SDS011;55114;52.052;5.238;2023-02-28T16:12:34;4.90;;;2.10;;
68284;SDS011;55114;52.052;5.238;2023-02-28T16:15:05;5.65;;;2.72;;
68284;SDS011;55114;52.052;5.238;2023-02-28T16:17:35;4.60;;;2.00;;
68284;SDS011;55114;52.052;5.238;2023-02-28T16:20:18;4.43;;;1.98;;
68284;SDS011;55114;52.052;5.238;2023-02-28T16:22:46;5.75;;;2.30;;
68284;SDS011;55114;52.052;5.238;2023-02-28T16:25:14;6.28;;;2.55;;
68284;SDS011;55114;52.052;5.238;2023-02-28T16:27:42;5.18;;;1.98;;
68284;SDS011;55114;52.052;5.238;2023-02-28T16:30:15;4.82;;;2.13;;
68284;SDS011;55114;52.052;5.238;2023-02-28T16:32:44;4.00;;;1.80;;
68284;SDS011;55114;52.052;5.238;2023-02-28T16:35:11;4.10;;;1.75;;
68284;SDS011;55114;52.052;5.238;2023-02-28T16:37:40;4.30;;;2.08;;
68284;SDS011;55114;52.052;5.238;2023-02-28T16:40:09;5.07;;;1.75;;
68284;SDS011;55114;52.052;5.238;2023-02-28T16:42:40;4.30;;;2.08;;
68284;SDS011;55114;52.052;5.238;2023-02-28T16:45:14;8.00;;;1.50;;
68284;SDS011;55114;52.052;5.238;2023-02-28T16:47:42;6.07;;;2.28;;
68284;SDS011;55114;52.052;5.238;2023-02-28T16:50:14;6.00;;;3.03;;
68284;SDS011;55114;52.052;5.238;2023-02-28T16:52:41;8.43;;;2.20;;
68284;SDS011;55114;52.052;5.238;2023-02-28T16:55:08;5.65;;;2.67;;
68284;SDS011;55114;52.052;5.238;2023-02-28T16:57:36;6.38;;;2.70;;
68284;SDS011;55114;52.052;5.238;2023-02-28T17:00:03;7.65;;;4.00;;
68284;SDS011;55114;52.052;5.238;2023-02-28T17:02:31;7.45;;;3.20;;
68284;SDS011;55114;52.052;5.238;2023-02-28T17:04:58;8.77;;;3.90;;
68284;SDS011;55114;52.052;5.238;2023-02-28T17:07:26;6.07;;;2.60;;
68284;SDS011;55114;52.052;5.238;2023-02-28T17:09:53;7.53;;;3.47;;
68284;SDS011;55114;52.052;5.238;2023-02-28T17:12:21;9.18;;;4.80;;
68284;SDS011;55114;52.052;5.238;2023-02-28T17:14:48;6.50;;;3.28;;
68284;SDS011;55114;52.052;5.238;2023-02-28T17:17:20;17.85;;;8.02;;
68284;SDS011;55114;52.052;5.238;2023-02-28T17:19:48;17.90;;;8.43;;
68284;SDS011;55114;52.052;5.238;2023-02-28T17:22:15;17.48;;;9.80;;
68284;SDS011;55114;52.052;5.238;2023-02-28T17:24:42;8.48;;;4.68;;
68284;SDS011;55114;52.052;5.238;2023-02-28T17:27:12;7.82;;;4.07;;
68284;SDS011;55114;52.052;5.238;2023-02-28T17:29:39;14.75;;;6.65;;
68284;SDS011;55114;52.052;5.238;2023-02-28T17:32:08;14.45;;;6.60;;
68284;SDS011;55114;52.052;5.238;2023-02-28T17:34:43;15.88;;;6.72;;
68284;SDS011;55114;52.052;5.238;2023-02-28T17:37:12;52.65;;;21.10;;